sensor_id;sensor_type;location;lat;lon;timestamp;pressure;altitude;pressure_sealevel;temperature;humidity
39449;BME280;25151;45.566;9.382;2023-07-28T00:01:10;99480.25;;;27.01;49.52
39449;BME280;25151;45.566;9.382;2023-07-28T00:03:37;99491.81;;;26.97;49.90
39449;BME280;25151;45.566;9.382;2023-07-28T00:06:04;99500.63;;;27.05;49.63
39449;BME280;25151;45.566;9.382;2023-07-28T00:08:34;99499.78;;;26.98;49.84
39449;BME280;25151;45.566;9.382;2023-07-28T00:11:08;99507.06;;;27.05;49.72
39449;BME280;25151;45.566;9.382;2023-07-28T00:13:38;99491.28;;;26.98;49.27
39449;BME280;25151;45.566;9.382;2023-07-28T00:16:11;99479.72;;;26.96;49.52
39449;BME280;25151;45.566;9.382;2023-07-28T00:18:41;99500.34;;;27.03;49.76
39449;BME280;25151;45.566;9.382;2023-07-28T00:21:14;99476.88;;;26.96;49.29
39449;BME280;25151;45.566;9.382;2023-07-28T00:23:41;99485.38;;;26.96;49.72
39449;BME280;25151;45.566;9.382;2023-07-28T00:26:09;99479.22;;;26.98;49.76
39449;BME280;25151;45.566;9.382;2023-07-28T00:28:35;99483.34;;;27.03;49.35
39449;BME280;25151;45.566;9.382;2023-07-28T00:31:03;99477.69;;;27.03;49.27
39449;BME280;25151;45.566;9.382;2023-07-28T00:33:30;99461.16;;;26.95;49.48
39449;BME280;25151;45.566;9.382;2023-07-28T00:36:00;99465.28;;;26.94;49.69
39449;BME280;25151;45.566;9.382;2023-07-28T00:38:27;99459.91;;;26.96;49.35
39449;BME280;25151;45.566;9.382;2023-07-28T00:40:57;99467.38;;;27.00;49.44
39449;BME280;25151;45.566;9.382;2023-07-28T00:43:25;99460.16;;;26.98;49.30
39449;BME280;25151;45.566;9.382;2023-07-28T00:45:55;99442.66;;;26.94;49.25
39449;BME280;25151;45.566;9.382;2023-07-28T00:48:26;99450.16;;;26.97;49.68
39449;BME280;25151;45.566;9.382;2023-07-28T00:50:56;99449.59;;;26.93;49.50
39449;BME280;25151;45.566;9.382;2023-07-28T00:53:27;99455.75;;;26.92;49.50
39449;BME280;25151;45.566;9.382;2023-07-28T00:55:54;99464.50;;;26.94;49.20
39449;BME280;25151;45.566;9.382;2023-07-28T00:58:24;99462.22;;;26.98;49.25
39449;BME280;25151;45.566;9.382;2023-07-28T01:00:54;99457.31;;;26.93;49.05
39449;BME280;25151;45.566;9.382;2023-07-28T01:03:23;99459.34;;;26.92;49.46
39449;BME280;25151;45.566;9.382;2023-07-28T01:09:03;99460.91;;;26.93;49.48
39449;BME280;25151;45.566;9.382;2023-07-28T01:11:33;99457.31;;;26.93;49.31
39449;BME280;25151;45.566;9.382;2023-07-28T01:14:00;99462.16;;;26.92;49.11
39449;BME280;25151;45.566;9.382;2023-07-28T01:16:28;99462.97;;;26.93;49.43
39449;BME280;25151;45.566;9.382;2023-07-28T01:18:55;99472.78;;;26.97;49.20
39449;BME280;25151;45.566;9.382;2023-07-28T01:21:25;99462.16;;;26.92;49.55
39449;BME280;25151;45.566;9.382;2023-07-28T01:26:37;99472.78;;;26.97;49.44
39449;BME280;25151;45.566;9.382;2023-07-28T01:29:06;99480.50;;;26.97;49.57
39449;BME280;25151;45.566;9.382;2023-07-28T01:31:42;99471.94;;;26.91;49.54
39449;BME280;25151;45.566;9.382;2023-07-28T01:34:12;99475.28;;;26.90;49.03
39449;BME280;25151;45.566;9.382;2023-07-28T01:36:44;99467.28;;;26.88;49.08
39449;BME280;25151;45.566;9.382;2023-07-28T01:39:14;99474.84;;;26.97;49.27
39449;BME280;25151;45.566;9.382;2023-07-28T01:41:46;99471.94;;;26.91;49.28
39449;BME280;25151;45.566;9.382;2023-07-28T01:44:13;99478.16;;;26.95;49.07
39449;BME280;25151;45.566;9.382;2023-07-28T01:46:41;99475.78;;;26.88;49.34
39449;BME280;25151;45.566;9.382;2023-07-28T01:49:11;99475.28;;;26.90;49.29
39449;BME280;25151;45.566;9.382;2023-07-28T01:51:43;99482.50;;;26.91;49.07
39449;BME280;25151;45.566;9.382;2023-07-28T01:54:16;99478.59;;;26.88;48.92
39449;BME280;25151;45.566;9.382;2023-07-28T01:56:44;99472.94;;;26.88;49.33
39449;BME280;25151;45.566;9.382;2023-07-28T01:59:11;99471.41;;;26.87;49.23
39449;BME280;25151;45.566;9.382;2023-07-28T02:01:39;99487.16;;;26.94;49.17
39449;BME280;25151;45.566;9.382;2023-07-28T02:04:07;99483.47;;;26.88;49.01
39449;BME280;25151;45.566;9.382;2023-07-28T02:06:37;99479.41;;;26.89;49.29
39449;BME280;25151;45.566;9.382;2023-07-28T02:09:07;99471.69;;;26.89;49.27
39449;BME280;25151;45.566;9.382;2023-07-28T02:11:37;99483.53;;;26.93;48.78
39449;BME280;25151;45.566;9.382;2023-07-28T02:14:07;99467.78;;;26.87;49.28
39449;BME280;25151;45.566;9.382;2023-07-28T02:16:38;99472.94;;;26.88;48.82
39449;BME280;25151;45.566;9.382;2023-07-28T02:19:10;99472.22;;;26.93;49.17
39449;BME280;25151;45.566;9.382;2023-07-28T02:21:37;99464.19;;;26.86;48.85
39449;BME280;25151;45.566;9.382;2023-07-28T02:24:07;99466.28;;;26.91;49.45
39449;BME280;25151;45.566;9.382;2023-07-28T02:26:35;99463.91;;;26.84;49.01
39449;BME280;25151;45.566;9.382;2023-07-28T02:29:02;99464.75;;;26.90;48.94
39449;BME280;25151;45.566;9.382;2023-07-28T02:31:29;99455.41;;;26.84;49.21
39449;BME280;25151;45.566;9.382;2023-07-28T02:33:59;99458.25;;;26.84;49.37
39449;BME280;25151;45.566;9.382;2023-07-28T02:36:26;99442.06;;;26.85;49.03
39449;BME280;25151;45.566;9.382;2023-07-28T02:38:57;99447.47;;;26.88;48.87
39449;BME280;25151;45.566;9.382;2023-07-28T02:41:30;99436.91;;;26.83;49.11
39449;BME280;25151;45.566;9.382;2023-07-28T02:43:59;99426.03;;;26.76;49.00
39449;BME280;25151;45.566;9.382;2023-07-28T02:46:26;99445.44;;;26.89;49.08
39449;BME280;25151;45.566;9.382;2023-07-28T02:48:53;99443.34;;;26.84;49.06
39449;BME280;25151;45.566;9.382;2023-07-28T02:51:23;99446.22;;;26.89;49.14
39449;BME280;25151;45.566;9.382;2023-07-28T02:53:53;99440.50;;;26.84;48.72
39449;BME280;25151;45.566;9.382;2023-07-28T02:56:21;99449.75;;;26.84;48.99
39449;BME280;25151;45.566;9.382;2023-07-28T02:58:48;99467.28;;;26.88;48.99
39449;BME280;25151;45.566;9.382;2023-07-28T03:01:15;99453.88;;;26.83;48.77
39449;BME280;25151;45.566;9.382;2023-07-28T03:03:48;99456.75;;;26.89;48.97
39449;BME280;25151;45.566;9.382;2023-07-28T03:06:15;99450.06;;;26.86;48.97
39449;BME280;25151;45.566;9.382;2023-07-28T03:08:48;99471.69;;;26.89;49.21
39449;BME280;25151;45.566;9.382;2023-07-28T03:11:15;99459.81;;;26.85;49.09
39449;BME280;25151;45.566;9.382;2023-07-28T03:13:42;99458.22;;;26.53;48.35
39449;BME280;25151;45.566;9.382;2023-07-28T03:16:12;99464.34;;;26.45;48.21
39449;BME280;25151;45.566;9.382;2023-07-28T03:18:39;99447.47;;;26.31;47.57
39449;BME280;25151;45.566;9.382;2023-07-28T03:21:09;99453.34;;;26.27;47.42
39449;BME280;25151;45.566;9.382;2023-07-28T03:23:35;99453.28;;;26.21;46.94
39449;BME280;25151;45.566;9.382;2023-07-28T03:26:05;99451.66;;;26.15;46.62
39449;BME280;25151;45.566;9.382;2023-07-28T03:28:32;99449.69;;;26.00;46.59
39449;BME280;25151;45.566;9.382;2023-07-28T03:30:59;99454.66;;;26.06;46.55
39449;BME280;25151;45.566;9.382;2023-07-28T03:33:26;99431.34;;;25.90;46.43
39449;BME280;25151;45.566;9.382;2023-07-28T03:35:53;99436.25;;;25.90;46.31
39449;BME280;25151;45.566;9.382;2023-07-28T03:38:20;99435.69;;;25.86;46.23
39449;BME280;25151;45.566;9.382;2023-07-28T03:40:53;99426.94;;;25.69;46.68
39449;BME280;25151;45.566;9.382;2023-07-28T03:43:20;99444.25;;;25.76;46.58
39449;BME280;25151;45.566;9.382;2023-07-28T03:45:47;99436.88;;;25.79;46.55
39449;BME280;25151;45.566;9.382;2023-07-28T03:48:14;99435.31;;;25.78;46.66
39449;BME280;25151;45.566;9.382;2023-07-28T03:50:41;99423.16;;;25.72;46.56
39449;BME280;25151;45.566;9.382;2023-07-28T03:53:09;99437.81;;;25.76;46.50
39449;BME280;25151;45.566;9.382;2023-07-28T03:55:39;99414.97;;;25.74;46.24
39449;BME280;25151;45.566;9.382;2023-07-28T03:58:09;99406.34;;;25.63;46.20
39449;BME280;25151;45.566;9.382;2023-07-28T04:00:36;99410.72;;;25.64;46.41
39449;BME280;25151;45.566;9.382;2023-07-28T04:03:09;99398.56;;;25.58;46.43
39449;BME280;25151;45.566;9.382;2023-07-28T04:05:41;99412.97;;;25.60;46.53
39449;BME280;25151;45.566;9.382;2023-07-28T04:08:08;99402.88;;;25.53;46.50
39449;BME280;25151;45.566;9.382;2023-07-28T04:10:36;99394.41;;;25.53;46.34
39449;BME280;25151;45.566;9.382;2023-07-28T04:13:03;99394.50;;;25.59;46.47
39449;BME280;25151;45.566;9.382;2023-07-28T04:15:30;99398.09;;;25.59;46.45
39449;BME280;25151;45.566;9.382;2023-07-28T04:17:58;99383.63;;;25.51;45.98
39449;BME280;25151;45.566;9.382;2023-07-28T04:20:27;99409.44;;;25.65;45.87
39449;BME280;25151;45.566;9.382;2023-07-28T04:23:00;99420.22;;;25.46;46.46
39449;BME280;25151;45.566;9.382;2023-07-28T04:25:29;99429.78;;;25.48;46.49
39449;BME280;25151;45.566;9.382;2023-07-28T04:27:56;99416.50;;;25.34;46.25
39449;BME280;25151;45.566;9.382;2023-07-28T04:30:24;99421.25;;;25.43;46.53
39449;BME280;25151;45.566;9.382;2023-07-28T04:32:56;99429.34;;;25.56;46.12
39449;BME280;25151;45.566;9.382;2023-07-28T04:35:26;99434.09;;;25.64;46.00
39449;BME280;25151;45.566;9.382;2023-07-28T04:37:56;99424.13;;;25.48;46.48
39449;BME280;25151;45.566;9.382;2023-07-28T04:40:34;99412.13;;;25.33;46.32
39449;BME280;25151;45.566;9.382;2023-07-28T04:43:04;99422.44;;;25.36;46.32
39449;BME280;25151;45.566;9.382;2023-07-28T04:45:33;99448.06;;;25.53;46.10
39449;BME280;25151;45.566;9.382;2023-07-28T04:48:01;99444.81;;;25.40;46.16
39449;BME280;25151;45.566;9.382;2023-07-28T04:50:34;99452.34;;;25.48;46.00
39449;BME280;25151;45.566;9.382;2023-07-28T04:53:02;99442.47;;;25.38;45.94
39449;BME280;25151;45.566;9.382;2023-07-28T04:55:32;99444.03;;;25.39;45.61
39449;BME280;25151;45.566;9.382;2023-07-28T04:58:01;99467.91;;;25.59;45.86
39449;BME280;25151;45.566;9.382;2023-07-28T05:00:28;99471.00;;;25.61;45.77
39449;BME280;25151;45.566;9.382;2023-07-28T05:03:01;99457.22;;;25.48;45.79
39449;BME280;25151;45.566;9.382;2023-07-28T05:05:32;99456.09;;;25.40;46.09
39449;BME280;25151;45.566;9.382;2023-07-28T05:08:07;99465.19;;;25.49;45.76
39449;BME280;25151;45.566;9.382;2023-07-28T05:10:39;99460.66;;;25.37;46.23
39449;BME280;25151;45.566;9.382;2023-07-28T05:13:07;99474.09;;;25.42;46.21
39449;BME280;25151;45.566;9.382;2023-07-28T05:15:37;99468.09;;;25.35;46.23
39449;BME280;25151;45.566;9.382;2023-07-28T05:18:03;99484.31;;;25.40;46.04
39449;BME280;25151;45.566;9.382;2023-07-28T05:20:30;99491.03;;;25.42;46.36
39449;BME280;25151;45.566;9.382;2023-07-28T05:22:57;99480.50;;;25.43;46.21
39449;BME280;25151;45.566;9.382;2023-07-28T05:25:28;99480.00;;;25.44;46.51
39449;BME280;25151;45.566;9.382;2023-07-28T05:27:54;99476.63;;;25.40;46.94
39449;BME280;25151;45.566;9.382;2023-07-28T05:30:27;99478.88;;;25.36;46.63
39449;BME280;25151;45.566;9.382;2023-07-28T05:33:01;99470.69;;;25.38;46.69
39449;BME280;25151;45.566;9.382;2023-07-28T05:35:32;99501.03;;;25.43;46.54
39449;BME280;25151;45.566;9.382;2023-07-28T05:38:02;99487.41;;;25.42;46.62
39449;BME280;25151;45.566;9.382;2023-07-28T05:40:33;99477.31;;;25.35;46.68
39449;BME280;25151;45.566;9.382;2023-07-28T05:43:06;99488.63;;;25.35;46.50
39449;BME280;25151;45.566;9.382;2023-07-28T05:45:33;99470.81;;;25.29;46.64
39449;BME280;25151;45.566;9.382;2023-07-28T05:48:02;99490.53;;;25.44;46.79
39449;BME280;25151;45.566;9.382;2023-07-28T05:50:34;99482.75;;;25.39;47.07
39449;BME280;25151;45.566;9.382;2023-07-28T05:53:10;99485.38;;;25.42;46.99
39449;BME280;25151;45.566;9.382;2023-07-28T05:55:40;99483.25;;;25.37;47.07
39449;BME280;25151;45.566;9.382;2023-07-28T05:58:10;99495.00;;;25.50;46.92
39449;BME280;25151;45.566;9.382;2023-07-28T06:00:39;99493.41;;;25.49;47.11
39449;BME280;25151;45.566;9.382;2023-07-28T06:03:10;99491.88;;;25.48;47.27
39449;BME280;25151;45.566;9.382;2023-07-28T06:05:41;99495.00;;;25.50;47.66
39449;BME280;25151;45.566;9.382;2023-07-28T06:08:11;99503.25;;;25.54;47.39
39449;BME280;25151;45.566;9.382;2023-07-28T06:10:39;99490.13;;;25.51;47.26
39449;BME280;25151;45.566;9.382;2023-07-28T06:13:08;99497.38;;;25.58;47.28
39449;BME280;25151;45.566;9.382;2023-07-28T06:15:41;99511.94;;;25.50;47.39
39449;BME280;25151;45.566;9.382;2023-07-28T06:18:07;99503.09;;;25.43;47.60
39449;BME280;25151;45.566;9.382;2023-07-28T06:20:34;99504.72;;;25.49;47.31
39449;BME280;25151;45.566;9.382;2023-07-28T06:23:03;99511.28;;;25.61;47.28
39449;BME280;25151;45.566;9.382;2023-07-28T06:25:30;99496.53;;;25.51;47.75
39449;BME280;25151;45.566;9.382;2023-07-28T06:27:59;99512.31;;;25.58;47.55
39449;BME280;25151;45.566;9.382;2023-07-28T06:30:27;99509.50;;;25.43;47.67
39449;BME280;25151;45.566;9.382;2023-07-28T06:32:59;99506.31;;;25.36;47.59
39449;BME280;25151;45.566;9.382;2023-07-28T06:35:28;99494.25;;;25.35;47.56
39449;BME280;25151;45.566;9.382;2023-07-28T06:37:58;99517.78;;;25.47;47.61
39449;BME280;25151;45.566;9.382;2023-07-28T06:40:28;99520.81;;;25.43;47.78
39449;BME280;25151;45.566;9.382;2023-07-28T06:42:58;99517.00;;;25.46;47.61
39449;BME280;25151;45.566;9.382;2023-07-28T06:45:26;99526.72;;;25.45;48.02
39449;BME280;25151;45.566;9.382;2023-07-28T06:47:52;99532.38;;;25.45;47.78
39449;BME280;25151;45.566;9.382;2023-07-28T06:50:27;99525.38;;;25.41;47.88
39449;BME280;25151;45.566;9.382;2023-07-28T06:52:59;99525.00;;;25.33;47.92
39449;BME280;25151;45.566;9.382;2023-07-28T06:55:28;99532.00;;;25.38;47.98
39449;BME280;25151;45.566;9.382;2023-07-28T06:57:58;99528.53;;;25.28;47.88
39449;BME280;25151;45.566;9.382;2023-07-28T07:00:27;99531.63;;;25.30;47.77
39449;BME280;25151;45.566;9.382;2023-07-28T07:02:54;99540.19;;;25.36;47.64
39449;BME280;25151;45.566;9.382;2023-07-28T07:05:23;99538.44;;;25.38;47.94
39449;BME280;25151;45.566;9.382;2023-07-28T07:07:50;99532.56;;;25.42;48.12
39449;BME280;25151;45.566;9.382;2023-07-28T07:10:22;99525.69;;;25.43;48.02
39449;BME280;25151;45.566;9.382;2023-07-28T07:12:53;99517.22;;;25.43;48.00
39449;BME280;25151;45.566;9.382;2023-07-28T07:15:22;99526.94;;;25.42;47.84
39449;BME280;25151;45.566;9.382;2023-07-28T07:17:55;99528.66;;;25.54;47.53
39449;BME280;25151;45.566;9.382;2023-07-28T07:20:25;99517.03;;;25.67;47.43
39449;BME280;25151;45.566;9.382;2023-07-28T07:22:55;99528.78;;;25.80;47.35
39449;BME280;25151;45.566;9.382;2023-07-28T07:25:22;99527.03;;;25.83;47.29
39449;BME280;25151;45.566;9.382;2023-07-28T07:27:49;99526.84;;;25.86;47.29
39449;BME280;25151;45.566;9.382;2023-07-28T07:30:20;99533.63;;;25.94;47.35
39449;BME280;25151;45.566;9.382;2023-07-28T07:32:50;99511.69;;;25.89;47.48
39449;BME280;25151;45.566;9.382;2023-07-28T07:35:16;99532.63;;;25.97;47.68
39449;BME280;25151;45.566;9.382;2023-07-28T07:37:45;99531.63;;;26.00;47.36
39449;BME280;25151;45.566;9.382;2023-07-28T07:40:15;99541.69;;;26.02;47.28
39449;BME280;25151;45.566;9.382;2023-07-28T07:42:48;99526.69;;;25.95;47.38
39449;BME280;25151;45.566;9.382;2023-07-28T07:45:18;99528.53;;;25.98;47.47
39449;BME280;25151;45.566;9.382;2023-07-28T07:47:45;99525.19;;;26.00;47.20
39449;BME280;25151;45.566;9.382;2023-07-28T07:50:12;99530.63;;;26.04;47.41
39449;BME280;25151;45.566;9.382;2023-07-28T07:52:40;99531.97;;;26.08;47.57
39449;BME280;25151;45.566;9.382;2023-07-28T07:55:09;99544.81;;;26.09;47.59
39449;BME280;25151;45.566;9.382;2023-07-28T07:57:40;99538.69;;;26.11;47.58
39449;BME280;25151;45.566;9.382;2023-07-28T08:00:10;99531.41;;;26.04;47.30
39449;BME280;25151;45.566;9.382;2023-07-28T08:02:43;99527.66;;;26.13;47.70
39449;BME280;25151;45.566;9.382;2023-07-28T08:05:09;99534.88;;;26.14;47.90
39449;BME280;25151;45.566;9.382;2023-07-28T08:07:42;99527.97;;;26.15;47.73
39449;BME280;25151;45.566;9.382;2023-07-28T08:10:10;99529.94;;;26.09;47.82
39449;BME280;25151;45.566;9.382;2023-07-28T08:12:36;99534.31;;;26.10;47.85
39449;BME280;25151;45.566;9.382;2023-07-28T08:15:03;99533.88;;;26.17;47.78
39449;BME280;25151;45.566;9.382;2023-07-28T08:17:33;99537.50;;;26.17;47.82
39449;BME280;25151;45.566;9.382;2023-07-28T08:19:59;99529.81;;;26.18;47.89
39449;BME280;25151;45.566;9.382;2023-07-28T08:22:26;99533.31;;;26.13;47.71
39449;BME280;25151;45.566;9.382;2023-07-28T08:24:55;99532.53;;;26.12;47.62
39449;BME280;25151;45.566;9.382;2023-07-28T08:27:24;99534.38;;;26.15;47.86
39449;BME280;25151;45.566;9.382;2023-07-28T08:29:50;99537.00;;;26.19;48.08
39449;BME280;25151;45.566;9.382;2023-07-28T08:32:19;99526.69;;;26.16;47.82
39449;BME280;25151;45.566;9.382;2023-07-28T08:34:47;99528.47;;;26.13;47.83
39449;BME280;25151;45.566;9.382;2023-07-28T08:37:16;99521.03;;;26.16;47.75
39449;BME280;25151;45.566;9.382;2023-07-28T08:39:46;99515.38;;;26.16;47.87
39449;BME280;25151;45.566;9.382;2023-07-28T08:42:15;99526.25;;;26.23;47.74
39449;BME280;25151;45.566;9.382;2023-07-28T08:44:48;99529.34;;;26.25;48.15
39449;BME280;25151;45.566;9.382;2023-07-28T08:47:18;99535.28;;;26.27;47.83
39449;BME280;25151;45.566;9.382;2023-07-28T08:49:44;99526.03;;;26.27;47.95
39449;BME280;25151;45.566;9.382;2023-07-28T08:52:15;99514.66;;;26.21;47.93
39449;BME280;25151;45.566;9.382;2023-07-28T08:54:45;99521.88;;;26.22;47.67
39449;BME280;25151;45.566;9.382;2023-07-28T08:57:14;99519.88;;;26.28;48.09
39449;BME280;25151;45.566;9.382;2023-07-28T08:59:41;99525.06;;;26.30;47.97
39449;BME280;25151;45.566;9.382;2023-07-28T09:02:16;99514.94;;;26.23;47.83
39449;BME280;25151;45.566;9.382;2023-07-28T09:04:47;99530.19;;;26.31;47.85
39449;BME280;25151;45.566;9.382;2023-07-28T09:07:13;99527.09;;;26.29;48.05
39449;BME280;25151;45.566;9.382;2023-07-28T09:09:40;99521.38;;;26.23;48.12
39449;BME280;25151;45.566;9.382;2023-07-28T09:12:10;99534.56;;;26.32;48.06
39449;BME280;25151;45.566;9.382;2023-07-28T09:14:39;99529.34;;;26.25;47.87
39449;BME280;25151;45.566;9.382;2023-07-28T09:17:09;99547.47;;;26.33;47.79
39449;BME280;25151;45.566;9.382;2023-07-28T09:19:50;99541.81;;;26.33;48.06
39449;BME280;25151;45.566;9.382;2023-07-28T09:22:19;99544.13;;;26.35;48.01
39449;BME280;25151;45.566;9.382;2023-07-28T09:24:49;99548.50;;;26.36;48.14
39449;BME280;25151;45.566;9.382;2023-07-28T09:27:26;99525.84;;;26.30;48.39
39449;BME280;25151;45.566;9.382;2023-07-28T09:29:58;99530.72;;;26.30;48.22
39449;BME280;25151;45.566;9.382;2023-07-28T09:32:33;99546.44;;;26.36;48.31
39449;BME280;25151;45.566;9.382;2023-07-28T09:35:10;99525.41;;;26.37;48.03
39449;BME280;25151;45.566;9.382;2023-07-28T09:37:44;99520.44;;;26.32;47.98
39449;BME280;25151;45.566;9.382;2023-07-28T09:40:17;99524.13;;;26.38;48.32
39449;BME280;25151;45.566;9.382;2023-07-28T09:42:45;99534.16;;;26.39;48.12
39449;BME280;25151;45.566;9.382;2023-07-28T09:45:18;99519.19;;;26.33;48.31
39449;BME280;25151;45.566;9.382;2023-07-28T09:47:50;99515.09;;;26.34;48.68
39449;BME280;25151;45.566;9.382;2023-07-28T09:50:26;99534.44;;;26.41;48.28
39449;BME280;25151;45.566;9.382;2023-07-28T09:52:54;99531.63;;;26.41;48.58
39449;BME280;25151;45.566;9.382;2023-07-28T09:55:26;99518.19;;;26.36;48.35
39449;BME280;25151;45.566;9.382;2023-07-28T09:57:57;99521.50;;;26.35;48.73
39449;BME280;25151;45.566;9.382;2023-07-28T10:00:28;99510.47;;;26.37;48.52
39449;BME280;25151;45.566;9.382;2023-07-28T10:03:01;99516.97;;;26.43;48.67
39449;BME280;25151;45.566;9.382;2023-07-28T10:05:28;99513.28;;;26.37;48.62
39449;BME280;25151;45.566;9.382;2023-07-28T10:07:56;99514.09;;;26.37;48.86
39449;BME280;25151;45.566;9.382;2023-07-28T10:10:23;99516.97;;;26.43;48.83
39449;BME280;25151;45.566;9.382;2023-07-28T10:12:54;99515.25;;;26.45;48.83
39449;BME280;25151;45.566;9.382;2023-07-28T10:15:30;99510.25;;;26.40;48.77
39449;BME280;25151;45.566;9.382;2023-07-28T10:17:57;99516.78;;;26.46;49.11
39449;BME280;25151;45.566;9.382;2023-07-28T10:23:11;99514.22;;;26.48;49.13
39449;BME280;25151;45.566;9.382;2023-07-28T10:25:41;99506.44;;;26.43;49.08
39449;BME280;25151;45.566;9.382;2023-07-28T10:28:26;99512.97;;;26.50;49.03
39449;BME280;25151;45.566;9.382;2023-07-28T10:30:57;99517.75;;;26.43;49.41
39449;BME280;25151;45.566;9.382;2023-07-28T10:33:30;99513.63;;;26.44;49.30
39449;BME280;25151;45.566;9.382;2023-07-28T10:35:58;99512.88;;;26.44;49.50
39449;BME280;25151;45.566;9.382;2023-07-28T10:38:31;99512.09;;;26.43;49.27
39449;BME280;25151;45.566;9.382;2023-07-28T10:41:11;99515.25;;;26.45;49.42
39449;BME280;25151;45.566;9.382;2023-07-28T10:43:41;99514.00;;;26.52;49.49
39449;BME280;25151;45.566;9.382;2023-07-28T10:46:10;99506.44;;;26.43;49.39
39449;BME280;25151;45.566;9.382;2023-07-28T10:48:47;99521.72;;;26.52;49.64
39449;BME280;25151;45.566;9.382;2023-07-28T10:51:26;99511.13;;;26.46;49.86
39449;BME280;25151;45.566;9.382;2023-07-28T10:54:03;99524.84;;;26.54;49.47
39449;BME280;25151;45.566;9.382;2023-07-28T10:56:34;99519.88;;;26.48;49.49
39449;BME280;25151;45.566;9.382;2023-07-28T10:59:02;99527.66;;;26.54;49.51
39449;BME280;25151;45.566;9.382;2023-07-28T11:01:33;99522.00;;;26.54;49.53
39449;BME280;25151;45.566;9.382;2023-07-28T11:04:16;99519.88;;;26.48;49.49
39449;BME280;25151;45.566;9.382;2023-07-28T11:06:52;99515.78;;;26.50;49.48
39449;BME280;25151;45.566;9.382;2023-07-28T11:09:25;99511.41;;;26.48;49.64
39449;BME280;25151;45.566;9.382;2023-07-28T11:11:54;99501.66;;;26.50;49.25
39449;BME280;25151;45.566;9.382;2023-07-28T11:14:27;99497.25;;;26.48;49.26
39449;BME280;25151;45.566;9.382;2023-07-28T11:16:56;99516.63;;;26.56;49.41
39449;BME280;25151;45.566;9.382;2023-07-28T11:19:23;99505.53;;;26.52;49.58
39449;BME280;25151;45.566;9.382;2023-07-28T11:21:53;99496.28;;;26.52;49.41
39449;BME280;25151;45.566;9.382;2023-07-28T11:24:21;99506.81;;;26.51;49.81
39449;BME280;25151;45.566;9.382;2023-07-28T11:26:52;99503.19;;;26.51;49.73
39449;BME280;25151;45.566;9.382;2023-07-28T11:29:20;99501.91;;;26.52;49.67
39449;BME280;25151;45.566;9.382;2023-07-28T11:31:48;99501.44;;;26.53;49.49
39449;BME280;25151;45.566;9.382;2023-07-28T11:34:19;99509.13;;;26.53;49.52
39449;BME280;25151;45.566;9.382;2023-07-28T11:36:49;99503.47;;;26.53;49.38
39449;BME280;25151;45.566;9.382;2023-07-28T11:39:16;99503.75;;;26.55;49.51
39449;BME280;25151;45.566;9.382;2023-07-28T11:41:43;99503.47;;;26.53;49.61
39449;BME280;25151;45.566;9.382;2023-07-28T11:44:12;99495.28;;;26.55;49.70
39449;BME280;25151;45.566;9.382;2023-07-28T11:46:40;99482.41;;;26.54;49.70
39449;BME280;25151;45.566;9.382;2023-07-28T11:49:16;99486.06;;;26.60;49.44
39449;BME280;25151;45.566;9.382;2023-07-28T11:51:47;99477.25;;;26.52;49.53
39449;BME280;25151;45.566;9.382;2023-07-28T11:54:20;99481.94;;;26.61;49.52
39449;BME280;25151;45.566;9.382;2023-07-28T11:56:50;99476.28;;;26.61;49.81
39449;BME280;25151;45.566;9.382;2023-07-28T11:59:23;99472.69;;;26.60;49.70
39449;BME280;25151;45.566;9.382;2023-07-28T12:01:55;99469.38;;;26.62;49.58
39449;BME280;25151;45.566;9.382;2023-07-28T12:04:42;99465.28;;;26.63;49.42
39449;BME280;25151;45.566;9.382;2023-07-28T12:07:16;99465.28;;;26.63;49.62
39449;BME280;25151;45.566;9.382;2023-07-28T12:09:50;99454.97;;;26.60;49.63
39449;BME280;25151;45.566;9.382;2023-07-28T12:12:21;99456.50;;;26.61;49.54
39449;BME280;25151;45.566;9.382;2023-07-28T12:14:55;99463.78;;;26.67;49.94
39449;BME280;25151;45.566;9.382;2023-07-28T12:17:25;99468.66;;;26.67;49.54
39449;BME280;25151;45.566;9.382;2023-07-28T12:20:08;99464.53;;;26.68;49.94
39449;BME280;25151;45.566;9.382;2023-07-28T12:22:44;99471.47;;;26.67;50.03
39449;BME280;25151;45.566;9.382;2023-07-28T12:25:11;99461.47;;;26.66;49.80
39449;BME280;25151;45.566;9.382;2023-07-28T12:27:38;99465.59;;;26.70;49.73
39449;BME280;25151;45.566;9.382;2023-07-28T12:30:07;99469.19;;;26.71;49.80
39449;BME280;25151;45.566;9.382;2023-07-28T12:32:37;99456.56;;;26.66;49.98
39449;BME280;25151;45.566;9.382;2023-07-28T12:35:09;99446.81;;;26.67;49.89
39449;BME280;25151;45.566;9.382;2023-07-28T12:37:39;99444.75;;;26.68;49.96
39449;BME280;25151;45.566;9.382;2023-07-28T12:40:06;99436.00;;;26.66;49.99
39449;BME280;25151;45.566;9.382;2023-07-28T12:42:36;99436.53;;;26.70;49.84
39449;BME280;25151;45.566;9.382;2023-07-28T12:45:09;99448.34;;;26.68;49.96
39449;BME280;25151;45.566;9.382;2023-07-28T12:47:42;99459.22;;;26.76;50.17
39449;BME280;25151;45.566;9.382;2023-07-28T12:50:09;99474.41;;;26.78;50.37
39449;BME280;25151;45.566;9.382;2023-07-28T12:52:41;99452.22;;;26.71;50.03
39449;BME280;25151;45.566;9.382;2023-07-28T12:55:10;99454.88;;;26.80;50.34
39449;BME280;25151;45.566;9.382;2023-07-28T12:57:40;99444.59;;;26.77;50.33
39449;BME280;25151;45.566;9.382;2023-07-28T13:00:08;99443.53;;;26.75;50.37
39449;BME280;25151;45.566;9.382;2023-07-28T13:02:44;99447.13;;;26.75;50.29
39449;BME280;25151;45.566;9.382;2023-07-28T13:05:13;99446.69;;;26.82;50.37
39449;BME280;25151;45.566;9.382;2023-07-28T13:07:48;99436.31;;;26.73;49.84
39449;BME280;25151;45.566;9.382;2023-07-28T13:10:21;99436.91;;;26.83;50.29
39449;BME280;25151;45.566;9.382;2023-07-28T13:12:50;99436.91;;;26.83;50.21
39449;BME280;25151;45.566;9.382;2023-07-28T13:15:20;99440.50;;;26.84;50.09
39449;BME280;25151;45.566;9.382;2023-07-28T13:17:47;99416.00;;;26.75;49.99
39449;BME280;25151;45.566;9.382;2023-07-28T13:20:22;99432.78;;;26.84;50.31
39449;BME280;25151;45.566;9.382;2023-07-28T13:22:52;99427.09;;;26.79;49.87